Time,TemperatureF,DewpointF,PressureIn,WindDirection,WindDirectionDegrees,WindSpeedMPH,WindSpeedGustMPH,Humidity,HourlyPrecipIn,Conditions,Clouds,dailyrainin,SoftwareType,DateUTC
2013-07-22 00:04:00,66.0,65.4,29.90,ESE,121,6.0,9.0,98,0.40,,,0.04,Wunderground v.1.15,2013-07-22 04:04:00,
2013-07-22 00:14:00,65.8,65.2,29.86,ESE,114,10.0,11.0,98,0.15,,,0.08,Wunderground v.1.15,2013-07-22 04:14:00,
2013-07-22 00:25:00,66.0,65.4,29.85,ESE,121,8.0,8.0,98,0.09,,,0.09,Wunderground v.1.15,2013-07-22 04:25:00,
2013-07-22 00:34:00,66.0,65.4,29.85,SE,125,7.0,7.0,98,0.04,,,0.09,Wunderground v.1.15,2013-07-22 04:34:00,
2013-07-22 00:45:00,66.0,65.4,29.85,ESE,111,6.0,6.0,98,0.00,,,0.09,Wunderground v.1.15,2013-07-22 04:45:00,
2013-07-22 00:54:00,65.8,65.2,29.83,East,101,5.0,7.0,98,0.00,,,0.09,Wunderground v.1.15,2013-07-22 04:54:00,
2013-07-22 01:04:00,65.8,65.2,29.83,ESE,113,6.0,6.0,98,0.00,,,0.09,Wunderground v.1.15,2013-07-22 05:04:00,
2013-07-22 01:15:00,65.6,65.0,29.83,ESE,109,5.0,5.0,98,0.00,,,0.09,Wunderground v.1.15,2013-07-22 05:15:00,
2013-07-22 01:24:00,65.6,65.0,29.82,ESE,107,4.0,6.0,98,0.00,,,0.09,Wunderground v.1.15,2013-07-22 05:24:00,
2013-07-22 01:35:00,65.5,64.9,29.82,ESE,110,6.0,7.0,98,0.00,,,0.09,Wunderground v.1.15,2013-07-22 05:35:00,
2013-07-22 01:44:00,65.3,64.7,29.82,ESE,110,5.0,5.0,98,0.00,,,0.09,Wunderground v.1.15,2013-07-22 05:44:00,
2013-07-22 01:55:00,65.3,64.7,29.82,ESE,109,5.0,5.0,98,0.00,,,0.09,Wunderground v.1.15,2013-07-22 05:55:00,
2013-07-22 02:05:00,65.3,64.7,29.82,ESE,110,4.0,4.0,98,0.00,,,0.09,Wunderground v.1.15,2013-07-22 06:05:00,
2013-07-22 02:14:00,65.2,64.3,29.82,ESE,107,4.0,4.0,97,0.00,,,0.09,Wunderground v.1.15,2013-07-22 06:14:00,
2013-07-22 02:25:00,65.2,64.3,29.82,ESE,107,1.0,1.0,97,0.00,,,0.09,Wunderground v.1.15,2013-07-22 06:25:00,
2013-07-22 02:34:00,65.0,64.1,29.82,ESE,107,2.0,2.0,97,0.00,,,0.09,Wunderground v.1.15,2013-07-22 06:34:00,
2013-07-22 02:44:00,65.0,63.8,29.82,SE,134,4.0,4.0,96,0.00,,,0.09,Wunderground v.1.15,2013-07-22 06:44:00,
2013-07-22 02:55:00,65.2,64.0,29.81,SE,131,4.0,8.0,96,0.00,,,0.09,Wunderground v.1.15,2013-07-22 06:55:00,
2013-07-22 03:05:00,65.5,64.0,29.81,ESE,119,7.0,9.0,95,0.00,,,0.09,Wunderground v.1.15,2013-07-22 07:05:00,
2013-07-22 03:14:00,65.5,63.7,29.80,SE,128,7.0,7.0,94,0.00,,,0.09,Wunderground v.1.15,2013-07-22 07:14:00,
2013-07-22 03:25:00,65.8,64.0,29.80,SE,124,7.0,9.0,94,0.00,,,0.09,Wunderground v.1.15,2013-07-22 07:25:00,
2013-07-22 03:34:00,65.8,63.7,29.80,ESE,115,7.0,7.0,93,0.00,,,0.09,Wunderground v.1.15,2013-07-22 07:34:00,
2013-07-22 03:45:00,65.8,63.7,29.80,ESE,113,7.0,7.0,93,0.00,,,0.09,Wunderground v.1.15,2013-07-22 07:45:00,
2013-07-22 03:54:00,65.6,63.5,29.80,ESE,114,4.0,4.0,93,0.00,,,0.09,Wunderground v.1.15,2013-07-22 07:54:00,
2013-07-22 04:05:00,65.6,63.5,29.80,ESE,114,1.0,1.0,93,0.00,,,0.09,Wunderground v.1.15,2013-07-22 08:05:00,
2013-07-22 04:14:00,65.5,63.4,29.80,ESE,113,0.0,0.0,93,0.00,,,0.09,Wunderground v.1.15,2013-07-22 08:14:00,
2013-07-22 04:24:00,65.3,63.2,29.79,ESE,113,0.0,0.0,93,0.00,,,0.09,Wunderground v.1.15,2013-07-22 08:24:00,
2013-07-22 04:35:00,65.2,63.4,29.79,ESE,113,0.0,0.0,94,0.00,,,0.09,Wunderground v.1.15,2013-07-22 08:35:00,
2013-07-22 04:44:00,65.2,63.4,29.79,ESE,113,1.0,4.0,94,0.00,,,0.09,Wunderground v.1.15,2013-07-22 08:44:00,
2013-07-22 04:55:00,65.3,63.5,29.78,ESE,113,2.0,2.0,94,0.00,,,0.09,Wunderground v.1.15,2013-07-22 08:55:00,
2013-07-22 05:05:00,65.3,63.5,29.78,ESE,113,1.0,1.0,94,0.00,,,0.09,Wunderground v.1.15,2013-07-22 09:05:00,
2013-07-22 05:14:00,65.3,63.8,29.78,ESE,113,1.0,1.0,95,0.00,,,0.09,Wunderground v.1.15,2013-07-22 09:14:00,
2013-07-22 05:25:00,65.3,63.8,29.78,ESE,113,0.0,0.0,95,0.00,,,0.09,Wunderground v.1.15,2013-07-22 09:25:00,
2013-07-22 05:34:00,65.5,64.0,29.78,ESE,113,1.0,1.0,95,0.00,,,0.09,Wunderground v.1.15,2013-07-22 09:34:00,
2013-07-22 05:45:00,65.5,64.0,29.78,ESE,113,0.0,0.0,95,0.00,,,0.09,Wunderground v.1.15,2013-07-22 09:45:00,
2013-07-22 05:55:00,65.5,64.0,29.78,ESE,113,0.0,0.0,95,0.00,,,0.09,Wunderground v.1.15,2013-07-22 09:55:00,
2013-07-22 06:04:00,65.3,63.8,29.78,ESE,113,0.0,0.0,95,0.00,,,0.09,Wunderground v.1.15,2013-07-22 10:04:00,
2013-07-22 06:15:00,65.5,64.0,29.80,ESE,113,0.0,0.0,95,0.00,,,0.09,Wunderground v.1.15,2013-07-22 10:15:00,
2013-07-22 06:25:00,65.6,64.1,29.80,ESE,113,1.0,1.0,95,0.00,,,0.09,Wunderground v.1.15,2013-07-22 10:25:00,
2013-07-22 06:34:00,65.6,64.1,29.80,ESE,113,0.0,0.0,95,0.00,,,0.09,Wunderground v.1.15,2013-07-22 10:34:00,
2013-07-22 06:45:00,65.6,64.1,29.80,ESE,113,0.0,0.0,95,0.00,,,0.09,Wunderground v.1.15,2013-07-22 10:45:00,
2013-07-22 06:54:00,66.0,64.5,29.80,ESE,113,1.0,5.0,95,0.00,,,0.10,Wunderground v.1.15,2013-07-22 10:54:00,
2013-07-22 07:05:00,66.0,64.5,29.80,ESE,113,4.0,5.0,95,0.00,,,0.10,Wunderground v.1.15,2013-07-22 11:05:00,
2013-07-22 07:14:00,66.0,64.5,29.79,ESE,113,3.0,4.0,95,0.00,,,0.10,Wunderground v.1.15,2013-07-22 11:14:00,
2013-07-22 07:24:00,66.1,64.6,29.79,ESE,113,3.0,5.0,95,0.00,,,0.10,Wunderground v.1.15,2013-07-22 11:24:00,
2013-07-22 07:35:00,66.3,64.8,29.79,ESE,117,3.0,3.0,95,0.00,,,0.10,Wunderground v.1.15,2013-07-22 11:35:00,
2013-07-22 07:44:00,66.4,64.9,29.79,ESE,117,2.0,2.0,95,0.00,,,0.10,Wunderground v.1.15,2013-07-22 11:44:00,
2013-07-22 07:54:00,66.6,65.1,29.79,ESE,117,2.0,5.0,95,0.00,,,0.10,Wunderground v.1.15,2013-07-22 11:54:00,
2013-07-22 08:04:00,66.8,65.0,29.79,SE,133,4.0,5.0,94,0.00,,,0.10,Wunderground v.1.15,2013-07-22 12:04:00,
2013-07-22 08:15:00,67.1,65.3,29.78,SE,133,3.0,4.0,94,0.00,,,0.10,Wunderground v.1.15,2013-07-22 12:15:00,
2013-07-22 08:24:00,67.4,65.3,29.78,SE,146,5.0,7.0,93,0.00,,,0.10,Wunderground v.1.15,2013-07-22 12:24:00,
2013-07-22 08:34:00,67.8,65.7,29.78,SE,128,6.0,7.0,93,0.00,,,0.10,Wunderground v.1.15,2013-07-22 12:34:00,
2013-07-22 08:45:00,68.1,66.0,29.78,SE,126,6.0,6.0,93,0.00,,,0.10,Wunderground v.1.15,2013-07-22 12:45:00,
2013-07-22 08:54:00,68.8,66.4,29.78,SE,140,5.0,5.0,92,0.00,,,0.10,Wunderground v.1.15,2013-07-22 12:54:00,
2013-07-22 09:04:00,69.3,66.6,29.78,SE,142,5.0,8.0,91,0.00,,,0.10,Wunderground v.1.15,2013-07-22 13:04:00,
2013-07-22 09:14:00,69.8,66.7,29.78,SSE,157,6.0,6.0,90,0.00,,,0.10,Wunderground v.1.15,2013-07-22 13:14:00,
2013-07-22 09:25:00,70.8,67.4,29.78,South,176,4.0,5.0,89,0.00,,,0.10,Wunderground v.1.15,2013-07-22 13:25:00,
2013-07-22 09:35:00,71.1,67.0,29.78,South,186,5.0,5.0,87,0.00,,,0.10,Wunderground v.1.15,2013-07-22 13:35:00,
2013-07-22 09:45:00,71.5,67.4,29.79,South,181,4.0,4.0,87,0.00,,,0.10,Wunderground v.1.15,2013-07-22 13:45:00,
2013-07-22 09:54:00,71.6,67.5,29.78,South,175,4.0,4.0,87,0.00,,,0.10,Wunderground v.1.15,2013-07-22 13:54:00,
2013-07-22 10:04:00,72.0,67.6,29.78,South,175,1.0,4.0,86,0.00,,,0.10,Wunderground v.1.15,2013-07-22 14:04:00,
2013-07-22 10:14:00,72.3,67.2,29.78,South,175,3.0,6.0,84,0.00,,,0.10,Wunderground v.1.15,2013-07-22 14:14:00,
2013-07-22 10:25:00,72.7,67.6,29.78,South,178,4.0,5.0,84,0.00,,,0.10,Wunderground v.1.15,2013-07-22 14:25:00,
2013-07-22 10:34:00,73.0,67.5,29.78,South,181,4.0,4.0,83,0.00,,,0.10,Wunderground v.1.15,2013-07-22 14:34:00,
2013-07-22 10:44:00,73.7,67.9,29.79,South,181,3.0,3.0,82,0.00,,,0.10,Wunderground v.1.15,2013-07-22 14:44:00,
2013-07-22 10:55:00,73.9,67.7,29.79,SW,219,3.0,6.0,81,0.00,,,0.10,Wunderground v.1.15,2013-07-22 14:55:00,
2013-07-22 11:05:00,73.9,68.1,29.79,SW,229,5.0,6.0,82,0.00,,,0.10,Wunderground v.1.15,2013-07-22 15:05:00,
2013-07-22 11:14:00,74.0,68.5,29.78,WSW,242,4.0,6.0,83,0.00,,,0.10,Wunderground v.1.15,2013-07-22 15:14:00,
2013-07-22 11:24:00,74.4,68.5,29.79,WSW,243,5.0,5.0,82,0.00,,,0.10,Wunderground v.1.15,2013-07-22 15:24:00,
2013-07-22 11:35:00,75.4,69.2,29.79,WSW,245,5.0,6.0,81,0.00,,,0.10,Wunderground v.1.15,2013-07-22 15:35:00,
2013-07-22 11:44:00,76.0,69.4,29.78,WSW,244,4.0,5.0,80,0.00,,,0.10,Wunderground v.1.15,2013-07-22 15:44:00,
2013-07-22 11:54:00,76.5,69.5,29.78,WSW,249,4.0,5.0,79,0.00,,,0.10,Wunderground v.1.15,2013-07-22 15:54:00,
2013-07-22 12:04:00,76.5,68.4,29.78,WSW,249,5.0,5.0,76,0.00,,,0.10,Wunderground v.1.15,2013-07-22 16:04:00,
2013-07-22 12:15:00,77.2,69.4,29.78,WSW,248,4.0,6.0,77,0.00,,,0.10,Wunderground v.1.15,2013-07-22 16:15:00,
2013-07-22 12:25:00,77.4,68.5,29.78,SW,232,5.0,5.0,74,0.00,,,0.10,Wunderground v.1.15,2013-07-22 16:25:00,
2013-07-22 12:34:00,78.5,69.9,29.78,SSW,207,4.0,4.0,75,0.00,,,0.10,Wunderground v.1.15,2013-07-22 16:34:00,
2013-07-22 12:44:00,78.8,69.4,29.78,SSW,207,4.0,4.0,73,0.00,,,0.10,Wunderground v.1.15,2013-07-22 16:44:00,
2013-07-22 12:55:00,79.2,69.0,29.78,SW,231,5.0,6.0,71,0.00,,,0.10,Wunderground v.1.15,2013-07-22 16:55:00,
2013-07-22 13:05:00,78.6,69.2,29.78,SSE,161,4.0,4.0,73,0.00,,,0.10,Wunderground v.1.15,2013-07-22 17:05:00,
2013-07-22 13:15:00,78.6,69.2,29.77,SSW,200,4.0,4.0,73,0.00,,,0.10,Wunderground v.1.15,2013-07-22 17:15:00,
2013-07-22 13:24:00,78.5,69.5,29.77,SW,220,4.0,4.0,74,0.00,,,0.10,Wunderground v.1.15,2013-07-22 17:24:00,
2013-07-22 13:35:00,79.8,70.4,29.77,SW,229,2.0,5.0,73,0.00,,,0.10,Wunderground v.1.15,2013-07-22 17:35:00,
2013-07-22 13:45:00,79.6,69.0,29.77,SW,229,4.0,4.0,70,0.00,,,0.10,Wunderground v.1.15,2013-07-22 17:45:00,
2013-07-22 13:54:00,79.2,68.1,29.77,SSW,205,5.0,6.0,69,0.00,,,0.10,Wunderground v.1.15,2013-07-22 17:54:00,
2013-07-22 14:04:00,80.1,69.4,29.77,South,181,3.0,6.0,70,0.00,,,0.10,Wunderground v.1.15,2013-07-22 18:04:00,
2013-07-22 14:14:00,80.9,69.3,29.77,SSW,206,5.0,5.0,68,0.00,,,0.10,Wunderground v.1.15,2013-07-22 18:14:00,
2013-07-22 14:24:00,80.7,68.7,29.76,SSE,149,5.0,8.0,67,0.00,,,0.10,Wunderground v.1.15,2013-07-22 18:24:00,
2013-07-22 14:35:00,80.9,68.5,29.76,SW,235,5.0,5.0,66,0.00,,,0.10,Wunderground v.1.15,2013-07-22 18:35:00,
2013-07-22 14:45:00,81.1,68.7,29.76,WSW,253,4.0,4.0,66,0.00,,,0.10,Wunderground v.1.15,2013-07-22 18:45:00,
2013-07-22 15:05:00,81.6,66.8,29.75,WSW,252,5.0,5.0,61,0.00,,,0.10,Wunderground v.1.15,2013-07-22 19:05:00,
2013-07-22 15:25:00,82.0,66.7,29.75,SW,229,4.0,5.0,60,0.00,,,0.10,Wunderground v.1.15,2013-07-22 19:25:00,
2013-07-22 15:45:00,82.0,69.5,29.74,SSE,159,5.0,8.0,66,0.00,,,0.10,Wunderground v.1.15,2013-07-22 19:45:00,
2013-07-22 15:55:00,82.0,67.2,29.73,WSW,250,5.0,5.0,61,0.00,,,0.10,Wunderground v.1.15,2013-07-22 19:55:00,
2013-07-22 16:05:00,81.6,68.7,29.73,South,178,4.0,4.0,65,0.00,,,0.10,Wunderground v.1.15,2013-07-22 20:05:00,
2013-07-22 16:14:00,82.6,67.3,29.73,SSW,205,6.0,6.0,60,0.00,,,0.10,Wunderground v.1.15,2013-07-22 20:14:00,
2013-07-22 16:24:00,82.4,68.5,29.72,SSW,206,4.0,6.0,63,0.00,,,0.10,Wunderground v.1.15,2013-07-22 20:24:00,
2013-07-22 16:35:00,82.4,68.1,29.72,SW,227,4.0,5.0,62,0.00,,,0.10,Wunderground v.1.15,2013-07-22 20:35:00,
2013-07-22 16:45:00,82.0,68.6,29.72,SW,226,4.0,6.0,64,0.00,,,0.10,Wunderground v.1.15,2013-07-22 20:45:00,
2013-07-22 16:55:00,82.8,68.9,29.71,SSW,211,6.0,7.0,63,0.00,,,0.10,Wunderground v.1.15,2013-07-22 20:55:00,
2013-07-22 17:05:00,83.0,67.7,29.71,SSE,159,4.0,6.0,60,0.00,,,0.10,Wunderground v.1.15,2013-07-22 21:05:00,
2013-07-22 17:15:00,83.0,66.7,29.71,SW,230,7.0,8.0,58,0.00,,,0.10,Wunderground v.1.15,2013-07-22 21:15:00,
2013-07-22 17:25:00,83.2,67.4,29.70,South,188,5.0,5.0,59,0.00,,,0.10,Wunderground v.1.15,2013-07-22 21:25:00,
2013-07-22 17:34:00,83.4,68.5,29.70,SW,217,5.0,5.0,61,0.00,,,0.10,Wunderground v.1.15,2013-07-22 21:34:00,
2013-07-22 17:44:00,83.2,67.4,29.70,SSW,193,5.0,5.0,59,0.00,,,0.10,Wunderground v.1.15,2013-07-22 21:44:00,
2013-07-22 17:54:00,83.0,67.2,29.70,SSW,210,6.0,6.0,59,0.00,,,0.10,Wunderground v.1.15,2013-07-22 21:54:00,
2013-07-22 18:04:00,82.0,66.3,29.70,South,182,5.0,5.0,59,0.00,,,0.10,Wunderground v.1.15,2013-07-22 22:04:00,
2013-07-22 18:14:00,81.6,67.8,29.70,South,172,4.0,5.0,63,0.00,,,0.10,Wunderground v.1.15,2013-07-22 22:14:00,
2013-07-22 18:25:00,81.4,66.7,29.69,South,184,5.0,6.0,61,0.00,,,0.10,Wunderground v.1.15,2013-07-22 22:25:00,
2013-07-22 18:35:00,82.0,67.7,29.69,SSW,199,6.0,6.0,62,0.00,,,0.10,Wunderground v.1.15,2013-07-22 22:35:00,
2013-07-22 18:44:00,82.0,67.2,29.69,SSW,201,5.0,5.0,61,0.00,,,0.10,Wunderground v.1.15,2013-07-22 22:44:00,
2013-07-22 18:55:00,81.8,68.4,29.67,SSE,160,5.0,6.0,64,0.00,,,0.10,Wunderground v.1.15,2013-07-22 22:55:00,
2013-07-22 19:04:00,81.6,68.7,29.67,SSW,194,5.0,5.0,65,0.00,,,0.10,Wunderground v.1.15,2013-07-22 23:04:00,
2013-07-22 19:14:00,81.1,68.7,29.67,SSE,154,6.0,7.0,66,0.00,,,0.10,Wunderground v.1.15,2013-07-22 23:14:00,
2013-07-22 19:24:00,80.7,66.9,29.67,SSE,163,6.0,6.0,63,0.00,,,0.10,Wunderground v.1.15,2013-07-22 23:24:00,
2013-07-22 19:44:00,80.3,68.3,29.67,South,187,6.0,6.0,67,0.00,,,0.10,Wunderground v.1.15,2013-07-22 23:44:00,
2013-07-22 19:54:00,79.9,67.5,29.67,South,190,5.0,6.0,66,0.00,,,0.10,Wunderground v.1.15,2013-07-22 23:54:00,
2013-07-22 20:04:00,79.6,67.2,29.67,SSW,210,5.0,5.0,66,0.00,,,0.10,Wunderground v.1.15,2013-07-23 00:04:00,
2013-07-22 20:14:00,79.4,67.5,29.67,SSW,213,4.0,6.0,67,0.00,,,0.10,Wunderground v.1.15,2013-07-23 00:14:00,
2013-07-22 20:23:00,79.2,68.1,29.67,SW,224,3.0,4.0,69,0.00,,,0.10,Wunderground v.1.15,2013-07-23 00:23:00,
2013-07-22 20:34:00,78.6,70.0,29.68,SW,229,4.0,4.0,75,0.00,,,0.10,Wunderground v.1.15,2013-07-23 00:34:00,
2013-07-22 20:44:00,77.7,69.9,29.68,SW,229,3.0,3.0,77,0.00,,,0.10,Wunderground v.1.15,2013-07-23 00:44:00,
2013-07-22 20:54:00,77.0,70.0,29.68,SW,229,3.0,4.0,79,0.00,,,0.10,Wunderground v.1.15,2013-07-23 00:54:00,
2013-07-22 21:04:00,76.3,69.7,29.69,SW,229,3.0,3.0,80,0.00,,,0.10,Wunderground v.1.15,2013-07-23 01:04:00,
2013-07-22 21:14:00,76.0,69.7,29.69,SW,229,1.0,1.0,81,0.00,,,0.10,Wunderground v.1.15,2013-07-23 01:14:00,
2013-07-22 21:24:00,75.3,69.8,29.69,SW,229,0.0,0.0,83,0.00,,,0.10,Wunderground v.1.15,2013-07-23 01:24:00,
2013-07-22 21:33:00,74.2,69.1,29.67,SW,229,0.0,1.0,84,0.00,,,0.10,Wunderground v.1.15,2013-07-23 01:33:00,
2013-07-22 21:44:00,73.5,69.1,29.67,SW,229,0.0,0.0,86,0.00,,,0.10,Wunderground v.1.15,2013-07-23 01:44:00,
2013-07-22 21:54:00,73.0,68.9,29.67,SW,229,0.0,0.0,87,0.00,,,0.10,Wunderground v.1.15,2013-07-23 01:54:00,
2013-07-22 22:04:00,72.7,68.9,29.67,SW,229,0.0,2.0,88,0.00,,,0.10,Wunderground v.1.15,2013-07-23 02:04:00,
2013-07-22 22:14:00,72.5,69.1,29.67,SW,229,0.0,1.0,89,0.00,,,0.10,Wunderground v.1.15,2013-07-23 02:14:00,
2013-07-22 22:24:00,72.3,68.9,29.67,SW,229,2.0,2.0,89,0.00,,,0.10,Wunderground v.1.15,2013-07-23 02:24:00,
2013-07-22 22:34:00,72.7,69.3,29.67,SW,229,1.0,1.0,89,0.00,,,0.10,Wunderground v.1.15,2013-07-23 02:34:00,
2013-07-22 22:44:00,72.8,69.4,29.68,SW,229,0.0,0.0,89,0.00,,,0.10,Wunderground v.1.15,2013-07-23 02:44:00,
2013-07-22 22:54:00,72.8,69.4,29.68,SW,229,1.0,1.0,89,0.00,,,0.10,Wunderground v.1.15,2013-07-23 02:54:00,
2013-07-22 23:04:00,72.8,69.4,29.69,SW,229,0.0,0.0,89,0.00,,,0.10,Wunderground v.1.15,2013-07-23 03:04:00,
2013-07-22 23:14:00,73.0,69.6,29.69,SW,229,0.0,0.0,89,0.00,,,0.10,Wunderground v.1.15,2013-07-23 03:14:00,
2013-07-22 23:24:00,73.0,69.6,29.69,SW,229,0.0,0.0,89,0.00,,,0.10,Wunderground v.1.15,2013-07-23 03:24:00,
2013-07-22 23:34:00,72.8,69.4,29.69,SW,229,0.0,1.0,89,0.00,,,0.10,Wunderground v.1.15,2013-07-23 03:34:00,
2013-07-22 23:44:00,72.5,69.1,29.68,SW,227,2.0,3.0,89,0.00,,,0.10,Wunderground v.1.15,2013-07-23 03:44:00,
2013-07-22 23:54:00,72.7,68.6,29.68,SSW,199,4.0,4.0,87,0.00,,,0.10,Wunderground v.1.15,2013-07-23 03:54:00,